Time;durP1;ratioP1;P1;durP2;ratioP2;P2;SDS_P1;SDS_P2;PMS_P1;PMS_P2;Temp;Humidity;BMP_temperature;BMP_pressure;BME280_temperature;BME280_humidity;BME280_pressure;Samples;Min_cycle;Max_cycle;Signal;HPM_P1;HPM_P2
2023/01/31 00:01:21;;;;;;;5.90;3.35;;;;;;;-0.10;81.89;97529.78;5054411;28;20063;-54
2023/01/31 00:03:47;;;;;;;5.82;3.38;;;;;;;-0.05;81.68;97532.22;5096281;28;20032;-52
2023/01/31 00:06:18;;;;;;;2.70;2.00;;;;;;;-0.10;81.31;97528.94;5067891;28;20071;-52
2023/01/31 00:08:45;;;;;;;3.13;1.90;;;;;;;-0.23;81.35;97497.81;5077339;28;20093;-53
2023/01/31 00:11:12;;;;;;;4.40;2.92;;;;;;;-0.01;80.88;97526.19;5071890;28;20040;-50
2023/01/31 00:13:38;;;;;;;3.30;2.05;;;;;;;-0.03;80.54;97530.47;5082923;28;20028;-50
2023/01/31 00:16:04;;;;;;;7.35;3.58;;;;;;;-0.06;80.67;97523.75;5079575;28;20051;-56
2023/01/31 00:18:30;;;;;;;6.20;2.92;;;;;;;0.00;80.92;97523.56;5088805;28;20146;-51
2023/01/31 00:20:56;;;;;;;4.50;2.00;;;;;;;-0.04;80.29;97537.28;5080297;28;20036;-57
2023/01/31 00:23:22;;;;;;;3.15;2.00;;;;;;;-0.12;80.72;97546.06;5083392;28;20462;-57
2023/01/31 00:25:48;;;;;;;6.15;2.85;;;;;;;-0.08;80.57;97529.75;5105173;28;20073;-54
2023/01/31 00:28:13;;;;;;;4.30;2.63;;;;;;;-0.06;80.60;97538.22;5076226;28;20486;-56
2023/01/31 00:30:39;;;;;;;4.60;2.78;;;;;;;-0.24;80.55;97505.50;5075556;28;20500;-54
2023/01/31 00:33:05;;;;;;;7.50;3.67;;;;;;;-0.24;80.73;97500.41;5074945;28;20048;-51
2023/01/31 00:35:31;;;;;;;3.92;2.50;;;;;;;0.01;80.34;97542.28;5088975;28;20040;-53
2023/01/31 00:37:59;;;;;;;2.90;1.48;;;;;;;-0.04;80.11;97532.19;5080122;28;20052;-50
2023/01/31 00:40:24;;;;;;;7.43;3.40;;;;;;;-0.09;80.00;97528.09;5043367;28;20536;-53
2023/01/31 00:42:50;;;;;;;4.65;2.78;;;;;;;-0.10;80.21;97527.25;5077763;28;20055;-50
2023/01/31 00:45:16;;;;;;;6.15;3.05;;;;;;;-0.14;80.13;97538.41;5073459;28;20044;-52
2023/01/31 00:47:42;;;;;;;5.80;2.72;;;;;;;-0.08;80.10;97535.72;5077834;28;20036;-52
2023/01/31 00:50:11;;;;;;;4.85;2.58;;;;;;;-0.06;79.93;97528.84;5086649;28;20396;-53
2023/01/31 00:52:37;;;;;;;6.45;2.83;;;;;;;-0.04;80.11;97539.84;5064924;28;20047;-55
2023/01/31 00:55:03;;;;;;;4.25;2.90;;;;;;;-0.05;79.92;97548.38;5075075;28;20558;-55
2023/01/31 00:57:29;;;;;;;4.68;2.75;;;;;;;-0.21;79.56;97511.38;5074750;28;20591;-54
2023/01/31 00:59:55;;;;;;;4.38;1.90;;;;;;;-0.05;79.04;97542.44;5070345;28;20064;-51
2023/01/31 01:02:21;;;;;;;5.47;3.08;;;;;;;-0.08;79.18;97547.63;5085248;28;20045;-52
2023/01/31 01:04:47;;;;;;;7.40;2.50;;;;;;;-0.37;78.92;97514.38;5053058;28;20090;-55
2023/01/31 01:07:13;;;;;;;6.63;2.95;;;;;;;-0.06;79.22;97544.19;5071747;28;20037;-51
2023/01/31 01:09:39;;;;;;;4.10;2.20;;;;;;;-0.09;79.01;97535.75;5089199;28;20051;-52
2023/01/31 01:12:05;;;;;;;5.32;2.83;;;;;;;-0.07;79.36;97542.50;5082476;28;20673;-54
2023/01/31 01:14:31;;;;;;;6.13;2.10;;;;;;;-0.04;79.19;97544.13;5090029;28;20042;-50
2023/01/31 01:16:57;;;;;;;5.10;2.42;;;;;;;-0.07;78.92;97539.94;5089424;28;20423;-54
2023/01/31 01:19:24;;;;;;;5.85;3.58;;;;;;;-0.01;79.21;97542.34;5068631;28;20040;-51
2023/01/31 01:21:50;;;;;;;4.22;2.45;;;;;;;0.02;79.13;97543.97;5082009;28;20751;-55
2023/01/31 01:24:18;;;;;;;4.88;2.08;;;;;;;-0.04;78.77;97555.16;5086042;28;20611;-52
2023/01/31 01:26:44;;;;;;;7.50;3.53;;;;;;;-0.05;79.02;97545.00;5076545;28;20035;-55
2023/01/31 01:29:11;;;;;;;6.47;3.33;;;;;;;-0.09;79.03;97541.69;5081959;28;20680;-51
2023/01/31 01:31:38;;;;;;;3.97;2.25;;;;;;;-0.06;78.57;97545.91;5086305;28;20428;-57
2023/01/31 01:34:06;;;;;;;3.58;2.35;;;;;;;-0.07;78.94;97557.81;5080741;28;20036;-55
2023/01/31 01:36:34;;;;;;;5.28;2.53;;;;;;;-0.06;79.06;97556.09;5093575;28;20474;-53
2023/01/31 01:39:01;;;;;;;4.30;2.45;;;;;;;-0.03;79.20;97558.56;5069913;28;20066;-53
2023/01/31 01:41:27;;;;;;;5.18;3.03;;;;;;;-0.02;78.81;97552.59;5075852;28;20039;-51
2023/01/31 01:43:57;;;;;;;4.07;2.45;;;;;;;0.03;78.78;97555.00;5064641;28;20051;-53
2023/01/31 01:46:26;;;;;;;5.28;2.95;;;;;;;0.06;78.95;97548.09;5076949;28;20041;-51
2023/01/31 01:48:59;;;;;;;4.40;2.63;;;;;;;0.08;78.79;97556.56;5085160;28;20043;-51
2023/01/31 01:51:26;;;;;;;5.88;3.60;;;;;;;0.07;78.71;97560.00;5070763;28;20070;-48
2023/01/31 01:53:54;;;;;;;5.13;2.20;;;;;;;0.06;78.52;97550.66;5057837;28;20500;-51
2023/01/31 01:56:24;;;;;;;5.35;3.05;;;;;;;0.06;78.95;97552.38;5053100;28;20043;-54
2023/01/31 01:59:00;;;;;;;7.95;3.60;;;;;;;0.11;78.45;97543.69;5074792;28;20032;-55
2023/01/31 02:01:29;;;;;;;5.75;3.53;;;;;;;0.12;78.10;97547.09;5075165;28;20071;-51
2023/01/31 02:03:55;;;;;;;6.18;2.72;;;;;;;0.12;78.33;97537.72;5078976;28;20123;-50
2023/01/31 02:06:21;;;;;;;6.97;3.60;;;;;;;0.15;78.28;97537.66;5090104;28;20122;-53
2023/01/31 02:08:47;;;;;;;6.45;3.25;;;;;;;0.02;78.22;97513.31;5068005;28;20070;-54
2023/01/31 02:11:29;;;;;;;4.22;2.38;;;;;;;0.17;78.12;97550.38;5070291;28;20536;-52
2023/01/31 02:14:01;;;;;;;4.65;3.00;;;;;;;0.13;77.63;97533.44;5082817;28;20051;-53
2023/01/31 02:16:28;;;;;;;5.80;3.08;;;;;;;0.09;78.03;97532.72;5089031;28;20044;-54
2023/01/31 02:18:55;;;;;;;3.80;1.98;;;;;;;0.12;77.88;97544.53;5072224;28;20036;-50
2023/01/31 02:21:58;;;;;;;3.67;1.70;;;;;;;0.10;77.77;97528.44;5064302;28;20048;-52
2023/01/31 02:24:32;;;;;;;4.40;2.70;;;;;;;0.11;77.51;97527.53;5095335;28;20181;-51
2023/01/31 02:26:58;;;;;;;5.70;2.72;;;;;;;0.07;77.66;97523.41;5076424;28;20043;-54
2023/01/31 02:29:33;;;;;;;4.47;3.03;;;;;;;0.05;77.99;97520.06;5068201;28;20058;-54
2023/01/31 02:32:17;;;;;;;5.57;2.80;;;;;;;0.05;78.14;97536.22;5083348;28;20043;-49
2023/01/31 02:34:59;;;;;;;3.15;1.90;;;;;;;0.07;77.97;97524.25;5071436;28;20097;-55
2023/01/31 02:38:15;;;;;;;6.82;3.22;;;;;;;0.07;77.93;97520.84;5088781;28;20071;-46
2023/01/31 02:40:54;;;;;;;3.70;2.33;;;;;;;0.12;77.94;97527.50;5009506;28;20046;-55
2023/01/31 02:46:45;;;;;;;9.35;4.00;;;;;;;0.13;77.80;97531.75;5085957;28;20542;-51
2023/01/31 02:49:38;;;;;;;4.45;2.20;;;;;;;0.13;77.71;97547.06;5071426;28;20043;-51
2023/01/31 02:52:41;;;;;;;6.90;3.70;;;;;;;0.13;77.74;97538.56;5088518;28;20044;-55
2023/01/31 02:58:02;;;;;;;6.22;2.85;;;;;;;0.03;77.37;97502.22;5068960;28;20059;-51
2023/01/31 03:00:31;;;;;;;4.57;2.55;;;;;;;0.16;77.33;97533.38;5096387;28;20130;-50
2023/01/31 03:02:57;;;;;;;7.82;4.22;;;;;;;0.13;77.09;97538.56;5071715;28;20044;-52
2023/01/31 03:05:23;;;;;;;7.35;3.95;;;;;;;0.19;77.74;97553.72;5083628;28;20521;-51
2023/01/31 03:07:52;;;;;;;5.95;3.45;;;;;;;0.19;77.59;97533.28;5059990;28;20048;-49
2023/01/31 03:10:44;;;;;;;7.22;3.13;;;;;;;0.18;76.96;97534.16;5059078;28;20045;-49
2023/01/31 03:13:10;;;;;;;6.05;2.92;;;;;;;0.23;77.06;97562.97;5068541;28;20035;-52
2023/01/31 03:18:51;;;;;;;5.00;2.90;;;;;;;0.17;77.36;97556.31;5069478;28;20062;-56
2023/01/31 03:21:21;;;;;;;7.43;3.65;;;;;;;0.16;77.41;97559.75;5066787;28;20045;-57
2023/01/31 03:23:51;;;;;;;9.15;4.00;;;;;;;0.18;77.28;97562.25;5078376;28;20438;-52
2023/01/31 03:26:19;;;;;;;6.30;3.35;;;;;;;0.11;77.21;97548.81;5050202;28;20052;-53
2023/01/31 03:28:46;;;;;;;6.15;3.13;;;;;;;0.12;77.29;97557.31;5087462;28;20101;-54
2023/01/31 03:31:38;;;;;;;5.82;3.25;;;;;;;0.14;77.46;97570.91;5081816;28;20518;-50
2023/01/31 03:34:08;;;;;;;9.88;4.20;;;;;;;0.11;77.77;97564.13;5063039;28;20068;-55
2023/01/31 03:36:37;;;;;;;9.55;3.17;;;;;;;-0.08;77.71;97532.31;5070025;28;20052;-51
2023/01/31 03:39:46;;;;;;;5.65;3.25;;;;;;;0.11;77.61;97574.34;5074288;28;20057;-51
2023/01/31 03:42:37;;;;;;;6.68;3.53;;;;;;;0.16;78.19;97582.72;5066925;28;20511;-53
2023/01/31 03:45:15;;;;;;;7.28;4.10;;;;;;;0.14;78.12;97563.22;5063642;28;20099;-51
2023/01/31 03:47:43;;;;;;;6.57;3.72;;;;;;;-0.10;77.86;97527.25;5085590;28;20036;-49
2023/01/31 03:50:17;;;;;;;5.13;2.60;;;;;;;0.11;78.13;97579.47;5070651;28;20047;-52
2023/01/31 03:52:56;;;;;;;5.05;3.08;;;;;;;0.13;78.18;97575.16;5089975;28;20040;-55
2023/01/31 03:55:29;;;;;;;7.65;4.00;;;;;;;0.08;78.52;97576.16;5063100;28;20048;-51
2023/01/31 03:57:55;;;;;;;5.55;3.33;;;;;;;0.12;78.27;97576.03;5068629;28;20048;-54
2023/01/31 04:00:22;;;;;;;5.95;2.35;;;;;;;-0.10;78.19;97557.88;5061723;28;20032;-50
2023/01/31 04:02:58;;;;;;;7.85;4.00;;;;;;;0.06;78.43;97593.22;5081527;28;20039;-55
2023/01/31 04:05:29;;;;;;;13.50;4.43;;;;;;;0.13;78.49;97590.50;5076308;28;20032;-60
2023/01/31 04:07:56;;;;;;;6.35;4.13;;;;;;;0.14;78.32;97593.88;5072740;28;20059;-51
2023/01/31 04:10:25;;;;;;;5.75;3.28;;;;;;;0.09;78.69;97582.94;5062868;28;20585;-51
2023/01/31 04:12:51;;;;;;;8.50;4.90;;;;;;;0.04;78.66;97566.91;5089191;28;20040;-55
2023/01/31 04:15:17;;;;;;;9.80;4.03;;;;;;;0.09;78.89;97565.06;5081727;28;20048;-50
2023/01/31 04:17:43;;;;;;;7.07;3.17;;;;;;;0.16;78.55;97580.19;5076298;28;20051;-48
2023/01/31 04:20:10;;;;;;;11.25;4.07;;;;;;;-0.15;78.85;97546.94;5091968;28;20116;-50
2023/01/31 04:22:36;;;;;;;9.10;4.05;;;;;;;0.15;78.91;97583.63;5092541;28;20044;-51
2023/01/31 04:25:03;;;;;;;9.00;3.53;;;;;;;0.17;78.87;97593.78;5093857;28;20042;-54
2023/01/31 04:27:29;;;;;;;10.25;4.57;;;;;;;0.14;79.04;97588.78;5094023;28;20043;-55
2023/01/31 04:29:55;;;;;;;8.95;4.50;;;;;;;0.19;78.79;97603.09;5093853;28;20476;-49
2023/01/31 04:32:20;;;;;;;7.03;3.70;;;;;;;0.16;78.86;97587.84;5093596;28;20147;-55
2023/01/31 04:34:46;;;;;;;6.22;3.65;;;;;;;0.04;79.01;97577.97;5093236;28;20052;-54
2023/01/31 04:37:12;;;;;;;7.70;4.25;;;;;;;0.19;78.99;97607.38;5092634;28;20150;-53
2023/01/31 04:39:38;;;;;;;10.45;4.43;;;;;;;0.24;79.11;97602.97;5093553;28;20534;-53
2023/01/31 04:42:04;;;;;;;5.95;3.25;;;;;;;0.26;78.93;97608.91;5093110;28;20035;-52
2023/01/31 04:44:30;;;;;;;8.65;4.65;;;;;;;0.25;78.95;97617.44;5074578;28;20031;-49
2023/01/31 04:46:55;;;;;;;9.43;4.07;;;;;;;0.24;78.87;97621.72;5092366;28;20050;-52
2023/01/31 04:49:21;;;;;;;5.75;3.22;;;;;;;0.21;78.94;97620.97;5092306;28;20044;-50
2023/01/31 04:51:47;;;;;;;10.50;3.58;;;;;;;0.25;78.83;97618.28;5092357;28;20122;-53
2023/01/31 04:54:14;;;;;;;7.80;4.20;;;;;;;0.21;78.99;97616.66;5086023;28;20048;-50
2023/01/31 04:56:40;;;;;;;7.72;3.97;;;;;;;0.25;79.07;97625.94;5074234;28;20036;-53
2023/01/31 04:59:06;;;;;;;11.93;5.57;;;;;;;0.24;78.87;97608.94;5093745;28;20135;-51
2023/01/31 05:01:31;;;;;;;9.48;4.95;;;;;;;0.29;79.29;97601.13;5090839;28;20059;-50
2023/01/31 05:03:57;;;;;;;9.13;4.68;;;;;;;0.33;78.68;97621.47;5092085;27;20044;-54
2023/01/31 05:06:23;;;;;;;9.88;4.65;;;;;;;0.35;79.35;97618.88;5088815;28;20487;-57
2023/01/31 05:08:51;;;;;;;12.55;5.15;;;;;;;0.34;79.28;97617.19;5091041;28;20046;-53
2023/01/31 05:11:17;;;;;;;9.77;5.05;;;;;;;0.37;79.11;97615.38;5091130;28;20048;-56
2023/01/31 05:13:44;;;;;;;9.18;4.95;;;;;;;0.46;79.10;97621.13;5089595;28;20040;-52
2023/01/31 05:16:11;;;;;;;14.07;5.43;;;;;;;0.30;78.83;97579.81;5070999;28;20505;-48
2023/01/31 05:18:37;;;;;;;12.18;5.47;;;;;;;0.55;78.63;97633.66;5085770;28;20430;-54
2023/01/31 05:21:04;;;;;;;12.18;3.97;;;;;;;0.53;78.65;97633.69;5081884;28;20409;-49
2023/01/31 05:23:31;;;;;;;8.70;4.88;;;;;;;0.45;78.73;97634.78;5073513;28;20515;-52
2023/01/31 05:25:57;;;;;;;9.60;4.18;;;;;;;0.39;78.88;97643.47;5073749;28;20043;-51
2023/01/31 05:28:24;;;;;;;6.97;3.00;;;;;;;0.32;79.00;97645.31;5081294;28;20028;-51
2023/01/31 05:30:54;;;;;;;8.85;3.63;;;;;;;0.28;79.63;97648.00;5086900;28;20052;-52
2023/01/31 05:33:20;;;;;;;10.23;5.47;;;;;;;-0.04;80.00;97595.19;5086766;28;20093;-50
2023/01/31 05:35:47;;;;;;;12.45;5.68;;;;;;;0.26;80.59;97671.03;5083599;28;20049;-49
2023/01/31 05:38:13;;;;;;;8.98;4.13;;;;;;;0.04;80.52;97616.28;5079074;28;20434;-51
2023/01/31 05:40:39;;;;;;;9.10;4.47;;;;;;;0.23;80.39;97631.97;5070404;28;20059;-49
2023/01/31 05:43:05;;;;;;;8.10;3.85;;;;;;;0.23;81.07;97648.13;5078615;28;20044;-52
2023/01/31 05:45:31;;;;;;;7.13;3.63;;;;;;;0.18;81.12;97642.31;5069229;28;20051;-52
2023/01/31 05:47:57;;;;;;;9.45;5.50;;;;;;;0.14;81.50;97640.72;5076016;28;20063;-54
2023/01/31 05:50:23;;;;;;;8.57;3.83;;;;;;;0.18;81.70;97642.31;5069231;28;20032;-50
2023/01/31 05:52:51;;;;;;;11.10;6.47;;;;;;;0.25;81.62;97646.38;5085745;28;20763;-51
2023/01/31 05:55:17;;;;;;;9.95;4.57;;;;;;;0.23;81.63;97662.63;5076216;28;20048;-53
2023/01/31 05:57:43;;;;;;;9.65;5.32;;;;;;;0.20;81.46;97638.00;5068944;28;20059;-54
2023/01/31 06:00:10;;;;;;;11.50;5.10;;;;;;;-0.07;81.47;97593.56;5081089;28;20040;-53
2023/01/31 06:02:40;;;;;;;6.53;4.13;;;;;;;0.27;81.78;97662.50;5083400;28;20040;-53
2023/01/31 06:05:07;;;;;;;7.82;3.80;;;;;;;0.26;81.67;97663.38;5068597;28;20135;-51
2023/01/31 06:07:33;;;;;;;11.63;5.63;;;;;;;0.29;81.86;97668.41;5080234;28;20040;-54
2023/01/31 06:09:59;;;;;;;7.88;4.68;;;;;;;0.25;81.62;97660.88;5089683;28;20039;-51
2023/01/31 06:12:25;;;;;;;12.80;6.10;;;;;;;0.22;81.39;97658.38;5081420;28;20043;-50
2023/01/31 06:14:51;;;;;;;12.77;5.68;;;;;;;0.26;81.46;97660.00;5088063;28;20044;-51
2023/01/31 06:17:17;;;;;;;13.43;6.07;;;;;;;0.28;81.52;97665.88;5080233;28;20039;-54
2023/01/31 06:19:42;;;;;;;11.02;4.80;;;;;;;0.31;81.69;97665.84;5069527;28;20040;-53
2023/01/31 06:22:09;;;;;;;8.52;4.72;;;;;;;0.26;81.67;97671.03;5083660;28;20036;-55
2023/01/31 06:24:35;;;;;;;6.30;3.83;;;;;;;0.32;81.64;97673.44;5074419;28;20068;-53
2023/01/31 06:27:00;;;;;;;10.30;4.55;;;;;;;0.31;81.53;97681.16;5084702;28;20074;-51
2023/01/31 06:29:26;;;;;;;13.00;6.75;;;;;;;0.37;81.52;97675.88;5082699;28;20084;-54
2023/01/31 06:31:55;;;;;;;8.75;4.30;;;;;;;0.38;81.54;97688.63;5056298;28;20062;-54
2023/01/31 06:34:21;;;;;;;11.25;5.35;;;;;;;0.39;81.30;97681.78;5087880;28;20063;-52
2023/01/31 06:36:47;;;;;;;11.30;6.10;;;;;;;0.51;81.36;97680.63;5079781;28;20033;-56
2023/01/31 06:39:13;;;;;;;12.07;5.70;;;;;;;0.57;81.00;97680.47;5069729;28;20033;-52
2023/01/31 06:41:39;;;;;;;12.60;6.72;;;;;;;0.25;80.41;97637.88;5052003;28;20135;-53
2023/01/31 06:44:05;;;;;;;9.75;4.72;;;;;;;0.54;80.41;97706.09;5083868;28;20194;-50
2023/01/31 06:46:32;;;;;;;9.50;5.35;;;;;;;0.40;80.63;97688.59;5069182;28;20052;-53
2023/01/31 06:48:57;;;;;;;12.82;5.50;;;;;;;0.54;80.38;97706.09;5074622;28;20507;-51
2023/01/31 06:51:23;;;;;;;12.90;5.45;;;;;;;0.58;80.40;97716.19;5070911;28;20044;-54
2023/01/31 06:53:52;;;;;;;8.23;4.57;;;;;;;0.50;79.97;97707.91;5085879;28;20059;-52
2023/01/31 06:56:18;;;;;;;11.55;5.00;;;;;;;0.48;80.04;97714.78;5085294;28;20251;-52
2023/01/31 06:58:44;;;;;;;8.65;4.93;;;;;;;0.44;80.07;97708.06;5078525;28;20032;-52
2023/01/31 07:01:12;;;;;;;9.70;5.63;;;;;;;0.47;80.13;97715.66;5085654;28;20051;-51
2023/01/31 07:03:38;;;;;;;10.40;5.28;;;;;;;0.54;80.37;97718.88;5088162;28;20092;-52
2023/01/31 07:06:05;;;;;;;13.68;6.70;;;;;;;0.61;79.83;97710.19;5071587;28;20120;-53
2023/01/31 07:08:32;;;;;;;7.63;3.90;;;;;;;0.66;79.62;97724.53;5088541;28;20040;-49
2023/01/31 07:11:00;;;;;;;8.88;4.68;;;;;;;0.45;79.51;97683.34;5088801;28;20112;-52
2023/01/31 07:13:27;;;;;;;10.73;4.17;;;;;;;0.38;79.92;97698.84;5086363;28;20140;-55
2023/01/31 07:15:54;;;;;;;11.48;5.82;;;;;;;0.50;79.96;97728.38;5087756;28;20278;-54
2023/01/31 07:18:20;;;;;;;11.00;5.97;;;;;;;0.56;80.16;97729.91;5061537;28;20090;-52
2023/01/31 07:20:46;;;;;;;5.03;3.67;;;;;;;0.59;79.96;97730.66;5089043;28;20044;-52
2023/01/31 07:23:12;;;;;;;11.93;6.63;;;;;;;0.54;80.02;97729.13;5082519;28;20569;-53
2023/01/31 07:25:37;;;;;;;7.38;3.70;;;;;;;0.58;79.79;97734.09;5077158;28;20048;-53
2023/01/31 07:28:03;;;;;;;10.48;5.40;;;;;;;0.56;80.10;97741.00;5074139;28;20036;-52
2023/01/31 07:30:30;;;;;;;14.73;6.57;;;;;;;0.55;80.45;97744.41;5099315;28;20431;-57
2023/01/31 07:32:55;;;;;;;7.38;4.10;;;;;;;0.57;80.12;97746.94;5097008;28;20125;-52
2023/01/31 07:35:21;;;;;;;11.98;6.03;;;;;;;0.58;80.51;97736.66;5087862;28;20102;-52
2023/01/31 07:37:50;;;;;;;16.50;7.18;;;;;;;0.65;80.31;97742.47;5075361;28;20040;-52
2023/01/31 07:40:17;;;;;;;6.43;3.83;;;;;;;0.64;80.16;97746.72;5080143;28;20044;-54
2023/01/31 07:42:42;;;;;;;14.45;6.15;;;;;;;0.64;80.03;97739.06;5086612;28;20086;-50
2023/01/31 07:45:13;;;;;;;10.38;4.88;;;;;;;0.61;80.35;97751.09;5085421;28;20048;-49
2023/01/31 07:47:39;;;;;;;13.65;5.00;;;;;;;0.56;79.87;97763.16;5085477;28;20161;-53
2023/01/31 07:50:06;;;;;;;12.35;6.93;;;;;;;0.53;80.36;97753.84;5061107;28;20049;-50
2023/01/31 07:52:31;;;;;;;12.25;5.00;;;;;;;0.57;80.33;97747.78;5075927;28;20040;-62
2023/01/31 07:54:57;;;;;;;11.00;5.28;;;;;;;0.59;79.92;97752.84;5083046;28;20109;-58
2023/01/31 07:57:23;;;;;;;7.93;4.18;;;;;;;0.61;80.13;97758.75;5066461;28;20058;-61
2023/01/31 07:59:49;;;;;;;6.03;3.92;;;;;;;0.63;80.00;97759.56;5082898;28;20032;-62
2023/01/31 08:05:02;;;;;;;11.00;4.85;;;;;;;0.70;79.96;97773.84;5080764;28;20036;-59
2023/01/31 08:07:29;;;;;;;10.45;5.10;;;;;;;0.71;79.93;97778.09;5066804;28;20079;-59
2023/01/31 08:09:55;;;;;;;14.75;6.32;;;;;;;0.74;79.69;97778.00;5081767;28;20134;-60
2023/01/31 08:12:21;;;;;;;7.38;3.83;;;;;;;0.71;79.19;97765.31;5090744;28;20108;-60
2023/01/31 08:14:47;;;;;;;9.25;5.25;;;;;;;0.78;79.55;97769.41;5085689;28;20043;-59
2023/01/31 08:17:13;;;;;;;13.27;5.72;;;;;;;0.69;79.44;97746.59;5070172;28;20061;-56
2023/01/31 08:19:39;;;;;;;8.77;4.55;;;;;;;0.55;79.21;97735.91;5071979;28;20033;-60
2023/01/31 08:22:05;;;;;;;8.05;4.65;;;;;;;0.85;78.76;97793.91;5074167;28;20060;-60
2023/01/31 08:24:32;;;;;;;6.10;3.35;;;;;;;0.64;78.98;97753.56;5086392;28;20040;-59
2023/01/31 08:26:58;;;;;;;14.38;5.00;;;;;;;0.83;78.97;97785.47;5076706;28;20100;-55
2023/01/31 08:29:25;;;;;;;8.48;5.18;;;;;;;0.88;78.71;97814.31;5067476;28;20656;-60
2023/01/31 08:31:51;;;;;;;12.50;6.40;;;;;;;0.81;78.58;97800.00;5082908;28;20048;-61
2023/01/31 08:34:17;;;;;;;7.75;4.53;;;;;;;0.67;79.06;97779.06;5069165;28;20135;-59
2023/01/31 08:36:44;;;;;;;7.95;4.03;;;;;;;0.78;78.63;97806.06;5080767;28;20040;-58
2023/01/31 08:39:11;;;;;;;12.65;5.25;;;;;;;0.82;78.81;97787.19;5087517;28;20130;-59
2023/01/31 08:41:38;;;;;;;14.45;7.18;;;;;;;0.98;78.69;97785.06;5090422;28;20086;-54
2023/01/31 08:44:07;;;;;;;9.85;5.22;;;;;;;1.01;78.32;97794.34;5090418;28;20068;-59
2023/01/31 08:46:35;;;;;;;12.10;6.45;;;;;;;1.04;78.20;97795.13;5085589;28;20102;-59
2023/01/31 08:49:03;;;;;;;13.57;6.78;;;;;;;1.07;78.38;97786.53;5075025;28;20097;-58
2023/01/31 08:51:29;;;;;;;10.00;4.13;;;;;;;1.24;77.93;97808.22;5091656;28;20040;-56
2023/01/31 08:53:55;;;;;;;8.18;4.28;;;;;;;1.03;77.58;97782.38;5091704;28;20044;-59
2023/01/31 08:56:24;;;;;;;15.38;6.72;;;;;;;1.21;77.66;97798.06;5089912;28;20046;-60
2023/01/31 08:58:51;;;;;;;11.20;5.38;;;;;;;1.26;76.98;97792.81;5091264;28;20130;-58
2023/01/31 09:01:18;;;;;;;13.68;7.10;;;;;;;1.31;77.34;97795.28;5091399;28;20039;-59
2023/01/31 09:03:45;;;;;;;12.65;5.63;;;;;;;1.34;76.81;97790.88;5090001;28;20146;-59
2023/01/31 09:06:14;;;;;;;12.90;5.32;;;;;;;0.99;76.51;97740.69;5086875;28;20040;-58
2023/01/31 09:08:40;;;;;;;11.48;5.32;;;;;;;1.15;76.36;97764.16;5069810;28;20048;-60
2023/01/31 09:11:06;;;;;;;11.48;5.75;;;;;;;1.36;76.47;97786.56;5071135;28;20048;-56
2023/01/31 09:13:33;;;;;;;10.10;5.40;;;;;;;1.31;76.16;97777.34;5069457;28;20512;-59
2023/01/31 09:16:03;;;;;;;11.25;5.57;;;;;;;1.42;76.16;97780.41;5073378;28;20058;-60
2023/01/31 09:18:28;;;;;;;;;;;;;;;1.46;75.71;97789.72;5079635;28;20051;-62
2023/01/31 09:20:54;;;;;;;13.18;6.65;;;;;;;1.34;75.69;97770.41;5087934;28;19915;-60
2023/01/31 09:23:21;;;;;;;14.70;5.90;;;;;;;1.54;75.75;97783.47;5072062;28;20063;-60
2023/01/31 09:25:52;;;;;;;12.50;6.32;;;;;;;1.68;75.25;97775.38;5069396;28;20037;-63
2023/01/31 09:28:18;;;;;;;10.40;5.05;;;;;;;1.76;75.21;97772.63;5052714;28;20503;-60
2023/01/31 09:30:44;;;;;;;14.52;6.45;;;;;;;1.75;74.90;97778.63;5069510;28;20067;-59
2023/01/31 09:33:10;;;;;;;11.32;5.47;;;;;;;1.59;74.65;97747.50;5070840;28;20043;-57
2023/01/31 09:35:35;;;;;;;9.63;5.00;;;;;;;1.74;74.57;97776.94;5076771;28;20036;-59
2023/01/31 09:38:01;;;;;;;12.52;6.35;;;;;;;1.68;74.60;97799.28;5070651;28;20053;-60
2023/01/31 09:40:31;;;;;;;12.50;6.50;;;;;;;1.52;74.48;97764.75;5068841;28;20052;-60
2023/01/31 09:43:01;;;;;;;9.90;5.03;;;;;;;1.69;74.55;97787.31;5069277;28;20098;-58
2023/01/31 09:45:33;;;;;;;7.15;3.97;;;;;;;1.67;74.71;97801.91;5087391;28;20089;-56
2023/01/31 09:48:01;;;;;;;10.27;5.18;;;;;;;1.59;74.72;97796.16;5089481;28;20036;-59
2023/01/31 09:50:33;;;;;;;14.15;6.13;;;;;;;1.54;74.89;97780.06;5078845;28;20039;-60
2023/01/31 09:52:59;;;;;;;9.25;4.63;;;;;;;1.58;75.08;97789.34;5070318;28;20103;-60
2023/01/31 09:55:47;;;;;;;12.23;6.25;;;;;;;1.74;75.04;97787.19;5083137;28;20047;-59
2023/01/31 09:58:32;;;;;;;10.57;5.25;;;;;;;1.73;74.91;97783.78;5088887;28;20528;-60
2023/01/31 10:01:13;;;;;;;8.63;4.63;;;;;;;1.71;74.58;97780.44;5072236;28;20133;-58
2023/01/31 10:03:54;;;;;;;10.43;6.35;;;;;;;1.75;75.17;97779.44;5072239;28;20036;-59
2023/01/31 10:06:27;;;;;;;8.95;4.80;;;;;;;1.79;74.95;97780.19;5069938;28;20542;-56
2023/01/31 10:09:15;;;;;;;13.82;6.45;;;;;;;1.82;75.05;97780.97;5068861;28;20048;-56
2023/01/31 10:11:41;;;;;;;12.50;6.03;;;;;;;1.80;75.06;97799.81;5068555;28;20036;-60
2023/01/31 10:14:31;;;;;;;8.20;4.68;;;;;;;1.59;75.19;97794.44;5070701;28;20041;-59
2023/01/31 10:16:59;;;;;;;13.07;6.35;;;;;;;1.54;75.48;97803.97;5078078;28;20065;-58
2023/01/31 10:19:30;;;;;;;8.32;4.22;;;;;;;1.52;75.72;97794.63;5035617;28;20148;-58
2023/01/31 10:22:05;;;;;;;10.95;4.45;;;;;;;1.51;76.25;97806.63;5068492;28;20044;-60
2023/01/31 10:25:02;;;;;;;14.57;6.07;;;;;;;1.49;76.47;97799.84;5068275;28;20048;-59
2023/01/31 10:27:43;;;;;;;7.68;4.43;;;;;;;1.49;76.29;97813.50;5059665;28;20526;-60
2023/01/31 10:30:52;;;;;;;14.13;5.55;;;;;;;1.48;76.60;97814.38;5051493;28;20048;-61
2023/01/31 10:33:38;;;;;;;15.30;6.43;;;;;;;1.58;76.64;97817.50;5041034;28;20044;-61
2023/01/31 10:36:16;;;;;;;8.40;3.83;;;;;;;1.57;76.28;97823.53;5082117;28;20046;-61
2023/01/31 10:39:17;;;;;;;11.27;6.05;;;;;;;1.58;76.33;97826.03;5087857;28;20040;-60
2023/01/31 10:42:01;;;;;;;10.18;4.93;;;;;;;1.57;76.13;97841.47;5087596;28;20067;-64
2023/01/31 10:44:45;;;;;;;13.50;6.72;;;;;;;1.25;76.56;97789.44;5080511;28;20462;-59
2023/01/31 10:47:13;;;;;;;8.90;4.70;;;;;;;1.35;76.10;97791.72;5069465;28;20059;-57
2023/01/31 10:49:41;;;;;;;12.90;6.20;;;;;;;1.53;75.80;97833.00;5068367;28;20098;-58
2023/01/31 10:52:32;;;;;;;10.93;5.78;;;;;;;1.56;75.90;97834.66;5070947;28;20059;-59
2023/01/31 10:55:42;;;;;;;12.77;5.50;;;;;;;1.56;75.99;97829.53;5075037;28;20056;-60
2023/01/31 10:58:12;;;;;;;9.68;4.45;;;;;;;1.55;75.59;97832.97;5082426;28;20174;-57
2023/01/31 11:00:38;;;;;;;9.40;5.03;;;;;;;1.21;75.61;97776.75;5087902;28;20063;-57
2023/01/31 11:03:04;;;;;;;8.68;4.78;;;;;;;1.49;75.41;97833.97;5088439;28;20136;-61
2023/01/31 11:05:30;;;;;;;11.27;4.72;;;;;;;1.50;75.68;97829.69;5074995;28;20044;-60
2023/01/31 11:07:57;;;;;;;8.60;4.63;;;;;;;1.52;75.78;97828.75;5067532;28;20606;-60
2023/01/31 11:10:29;;;;;;;12.13;6.22;;;;;;;1.61;75.42;97825.13;5068813;28;20040;-61
2023/01/31 11:13:03;;;;;;;10.35;5.57;;;;;;;1.50;75.16;97806.66;5050914;28;20044;-61
2023/01/31 11:15:38;;;;;;;8.73;4.50;;;;;;;1.51;75.17;97810.91;5080091;28;20040;-60
2023/01/31 11:18:04;;;;;;;10.60;5.00;;;;;;;1.52;75.49;97818.53;5089004;28;20534;-60
2023/01/31 11:20:36;;;;;;;8.23;4.88;;;;;;;1.51;75.35;97823.72;5075535;28;20146;-58
2023/01/31 11:23:03;;;;;;;7.63;3.78;;;;;;;1.52;75.51;97820.25;5070256;28;20043;-59
2023/01/31 11:25:31;;;;;;;7.07;4.30;;;;;;;1.48;75.23;97839.13;5069585;28;20044;-60
2023/01/31 11:28:00;;;;;;;14.50;5.72;;;;;;;1.51;75.16;97811.75;5069720;28;20467;-60
2023/01/31 11:30:31;;;;;;;10.77;5.23;;;;;;;1.31;75.36;97760.25;5068500;28;20841;-60
2023/01/31 11:32:57;;;;;;;16.50;6.38;;;;;;;1.70;75.12;97815.44;5067073;28;20044;-60
2023/01/31 11:35:29;;;;;;;13.82;6.80;;;;;;;1.69;75.02;97810.38;5077308;28;20400;-60
2023/01/31 11:37:55;;;;;;;14.85;5.93;;;;;;;1.72;75.22;97814.56;5088779;28;20036;-61
2023/01/31 11:40:38;;;;;;;13.77;6.55;;;;;;;1.77;75.26;97812.72;5087239;28;20393;-60
2023/01/31 11:43:20;;;;;;;12.00;5.88;;;;;;;1.84;75.07;97817.59;5088508;28;20039;-62
2023/01/31 11:46:02;;;;;;;10.98;5.30;;;;;;;1.77;74.84;97825.53;5070245;28;20490;-61
2023/01/31 11:48:36;;;;;;;13.18;6.65;;;;;;;1.82;75.11;97818.53;5088435;28;20044;-61
2023/01/31 11:51:02;;;;;;;10.20;5.72;;;;;;;1.80;75.04;97810.91;5072734;28;20530;-60
2023/01/31 11:53:36;;;;;;;12.23;3.97;;;;;;;1.73;74.51;97823.94;5068413;28;20083;-59
2023/01/31 11:56:23;;;;;;;9.88;5.28;;;;;;;1.67;74.71;97824.94;5077470;28;20131;-63
2023/01/31 11:58:53;;;;;;;10.52;5.55;;;;;;;1.70;74.82;97827.41;5067170;28;20037;-59
2023/01/31 12:01:21;;;;;;;9.23;4.30;;;;;;;1.68;74.81;97830.00;5086979;28;20036;-61